Time;durP1;ratioP1;P1;durP2;ratioP2;P2;SDS_P1;SDS_P2;PMS_P1;PMS_P2;Temp;Humidity;BMP_temperature;BMP_pressure;BME280_temperature;BME280_humidity;BME280_pressure;Samples;Min_cycle;Max_cycle;Signal;HPM_P1;HPM_P2
2023/03/02 00:01:07;;;;;;;29.97;17.57;;;1.10;99.40;;;;;;5111257;27;20459;-82
2023/03/02 00:03:34;;;;;;;26.37;16.10;;;1.10;99.40;;;;;;5111537;27;20200;-82
2023/03/02 00:06:02;;;;;;;28.63;17.27;;;1.10;99.40;;;;;;5115320;27;20208;-81
2023/03/02 00:08:29;;;;;;;31.00;17.17;;;1.10;99.40;;;;;;5111479;27;20199;-82
2023/03/02 00:10:59;;;;;;;28.90;17.17;;;1.10;99.40;;;;;;5115512;27;20212;-81
2023/03/02 00:13:26;;;;;;;26.70;16.93;;;1.10;99.40;;;;;;5108072;27;20292;-81
2023/03/02 00:15:53;;;;;;;27.73;16.53;;;1.10;99.40;;;;;;5109650;27;20274;-82
2023/03/02 00:18:21;;;;;;;27.77;16.80;;;1.10;99.40;;;;;;5114127;27;20212;-82
2023/03/02 00:20:48;;;;;;;29.50;16.93;;;1.20;99.40;;;;;;5114847;27;20227;-81
2023/03/02 00:23:15;;;;;;;31.73;18.13;;;1.10;99.40;;;;;;5106300;27;20696;-82
2023/03/02 00:25:42;;;;;;;30.00;16.93;;;1.10;99.40;;;;;;5105612;27;20738;-82
2023/03/02 00:28:10;;;;;;;28.70;16.47;;;1.10;99.40;;;;;;5106123;27;20231;-79
2023/03/02 00:30:38;;;;;;;25.63;16.73;;;1.10;99.40;;;;;;5119029;27;20260;-83
2023/03/02 00:33:04;;;;;;;27.70;17.27;;;1.10;99.40;;;;;;5116038;27;20203;-80
2023/03/02 00:35:37;;;;;;;29.73;18.50;;;1.10;99.40;;;;;;5112552;27;20201;-80
2023/03/02 00:38:04;;;;;;;27.77;17.10;;;1.10;99.20;;;;;;5109479;27;20291;-82
2023/03/02 00:40:31;;;;;;;32.00;17.70;;;1.10;99.40;;;;;;5110021;28;20220;-80
2023/03/02 00:42:58;;;;;;;29.13;17.63;;;1.10;99.40;;;;;;5110382;27;20227;-83
2023/03/02 00:45:25;;;;;;;31.40;18.57;;;1.00;99.40;;;;;;5116086;27;20196;-83
2023/03/02 00:47:52;;;;;;;30.67;17.57;;;1.00;99.40;;;;;;5109266;27;20228;-79
2023/03/02 00:50:18;;;;;;;27.63;17.20;;;1.00;99.40;;;;;;5111863;27;20207;-80
2023/03/02 00:52:47;;;;;;;33.70;19.63;;;0.90;99.40;;;;;;5112646;27;20228;-81
2023/03/02 00:55:14;;;;;;;32.17;18.23;;;0.90;99.40;;;;;;5109734;27;20203;-81
2023/03/02 00:57:40;;;;;;;27.77;17.77;;;0.90;99.40;;;;;;5097419;28;20300;-82
2023/03/02 01:00:09;;;;;;;26.93;17.83;;;0.90;99.50;;;;;;5113260;27;20222;-79
2023/03/02 01:02:37;;;;;;;30.90;18.37;;;0.90;99.40;;;;;;5106469;27;20220;-82
2023/03/02 01:05:05;;;;;;;27.67;17.70;;;0.90;99.40;;;;;;5115978;27;20642;-79
2023/03/02 01:07:32;;;;;;;33.63;18.37;;;0.90;99.60;;;;;;5105365;27;20196;-80
2023/03/02 01:10:00;;;;;;;29.60;18.10;;;0.90;99.50;;;;;;5108881;27;20219;-81
2023/03/02 01:12:27;;;;;;;29.30;18.10;;;0.90;99.50;;;;;;5107848;28;20199;-80
2023/03/02 01:14:54;;;;;;;31.40;17.90;;;0.90;99.40;;;;;;5105044;28;20215;-80
2023/03/02 01:17:21;;;;;;;29.30;17.60;;;1.00;99.40;;;;;;5101066;27;20212;-79
2023/03/02 01:19:48;;;;;;;29.70;17.80;;;1.00;99.40;;;;;;5113048;27;20633;-80
2023/03/02 01:22:15;;;;;;;28.63;18.63;;;0.90;99.40;;;;;;5111467;28;20219;-81
2023/03/02 01:24:42;;;;;;;29.57;18.77;;;0.90;99.40;;;;;;5108299;27;20261;-80
2023/03/02 01:27:10;;;;;;;31.63;18.10;;;0.90;99.40;;;;;;5114599;27;20196;-80
2023/03/02 01:29:38;;;;;;;30.73;17.97;;;0.90;99.40;;;;;;5107501;27;20216;-80
2023/03/02 01:32:05;;;;;;;29.73;18.57;;;0.90;99.40;;;;;;5109644;27;20219;-80
2023/03/02 01:34:32;;;;;;;32.80;19.07;;;0.90;99.40;;;;;;5114750;27;20203;-80
2023/03/02 01:36:59;;;;;;;30.40;19.27;;;0.90;99.40;;;;;;5110381;28;20200;-80
2023/03/02 01:39:26;;;;;;;29.80;18.40;;;0.80;99.60;;;;;;5112764;28;20204;-81
2023/03/02 01:41:53;;;;;;;31.30;18.87;;;0.80;99.50;;;;;;5110427;27;20212;-80
2023/03/02 01:44:37;;;;;;;31.93;18.53;;;0.80;99.70;;;;;;5110108;28;20616;-81
2023/03/02 01:47:12;;;;;;;29.13;18.33;;;0.80;99.90;;;;;;5105316;28;20194;-80
2023/03/02 01:49:43;;;;;;;31.77;18.30;;;0.80;99.70;;;;;;5104787;28;20679;-81
2023/03/02 01:52:11;;;;;;;31.90;18.50;;;0.80;99.70;;;;;;5100171;28;20266;-81
2023/03/02 01:54:38;;;;;;;30.17;19.00;;;0.80;99.70;;;;;;5101360;27;20200;-79
2023/03/02 01:57:07;;;;;;;31.57;18.90;;;0.80;99.70;;;;;;5104143;28;20282;-79
2023/03/02 01:59:39;;;;;;;32.10;19.33;;;0.70;99.70;;;;;;5108681;28;20200;-80
2023/03/02 02:02:09;;;;;;;33.17;19.37;;;0.70;99.90;;;;;;5108761;28;20598;-81
2023/03/02 02:04:39;;;;;;;29.87;19.40;;;0.60;99.90;;;;;;5102555;28;20675;-80
2023/03/02 02:07:08;;;;;;;30.40;19.20;;;0.60;99.90;;;;;;5101881;28;20192;-80
2023/03/02 02:09:38;;;;;;;29.93;18.97;;;0.60;99.90;;;;;;5106491;28;20192;-81
2023/03/02 02:12:06;;;;;;;30.07;19.40;;;0.60;99.90;;;;;;5107467;27;20204;-80
2023/03/02 02:14:33;;;;;;;33.03;19.53;;;0.60;99.90;;;;;;5111926;28;20207;-80
2023/03/02 02:17:01;;;;;;;34.50;19.70;;;0.60;99.90;;;;;;5112246;28;20200;-79
2023/03/02 02:19:47;;;;;;;31.43;19.27;;;0.50;99.90;;;;;;5101249;28;20229;-80
2023/03/02 02:22:21;;;;;;;31.13;19.33;;;0.50;99.90;;;;;;5103651;27;20250;-80
2023/03/02 02:24:54;;;;;;;29.30;18.47;;;0.60;99.90;;;;;;5105470;28;20244;-80
2023/03/02 02:27:32;;;;;;;27.63;18.53;;;0.70;99.90;;;;;;5102098;28;20192;-80
2023/03/02 02:30:01;;;;;;;29.20;17.97;;;0.70;99.90;;;;;;5102208;28;20193;-80
2023/03/02 02:32:31;;;;;;;31.10;18.50;;;0.70;99.80;;;;;;5099566;28;20195;-79
2023/03/02 02:35:02;;;;;;;32.90;18.63;;;0.70;99.30;;;;;;5102197;28;20203;-79
2023/03/02 02:37:33;;;;;;;28.90;17.80;;;0.70;99.30;;;;;;5107027;28;20200;-79
2023/03/02 02:40:04;;;;;;;31.33;18.67;;;0.70;99.30;;;;;;5110981;27;20203;-81
2023/03/02 02:42:38;;;;;;;32.70;19.33;;;0.70;99.30;;;;;;5117556;27;20283;-79
2023/03/02 02:45:16;;;;;;;32.60;19.43;;;0.60;99.30;;;;;;5100565;28;20275;-80
2023/03/02 02:47:43;;;;;;;31.03;19.07;;;0.50;99.60;;;;;;5104399;27;20199;-80
2023/03/02 02:50:18;;;;;;;32.00;19.20;;;0.60;99.30;;;;;;5110502;28;20220;-80
2023/03/02 02:52:47;;;;;;;30.23;19.20;;;0.50;99.30;;;;;;5108512;28;20199;-80
2023/03/02 02:55:19;;;;;;;34.10;20.23;;;0.40;99.50;;;;;;5101282;28;20651;-80
2023/03/02 02:57:48;;;;;;;30.43;18.93;;;0.40;99.80;;;;;;5108549;27;20196;-80
2023/03/02 03:00:19;;;;;;;30.90;18.80;;;0.30;99.80;;;;;;5110487;28;20553;-80
2023/03/02 03:02:51;;;;;;;31.67;19.43;;;0.30;99.90;;;;;;5108836;28;20651;-80
2023/03/02 03:05:18;;;;;;;31.23;18.33;;;0.30;99.90;;;;;;5112628;28;20196;-80
2023/03/02 03:07:45;;;;;;;31.67;19.40;;;0.20;99.90;;;;;;5108011;28;20200;-80
2023/03/02 03:10:18;;;;;;;34.70;19.93;;;0.20;99.90;;;;;;5105698;28;20208;-80
2023/03/02 03:12:50;;;;;;;32.47;19.90;;;0.30;99.90;;;;;;5102571;28;20199;-80
2023/03/02 03:15:17;;;;;;;32.50;20.47;;;0.40;99.90;;;;;;5105569;28;20204;-79
2023/03/02 03:17:48;;;;;;;32.27;19.80;;;0.40;99.90;;;;;;5094814;28;20200;-79
2023/03/02 03:20:17;;;;;;;33.03;20.27;;;0.30;99.90;;;;;;5108280;28;20192;-79
2023/03/02 03:22:44;;;;;;;36.47;20.67;;;0.30;99.90;;;;;;5108847;28;20285;-80
2023/03/02 03:25:14;;;;;;;34.73;21.57;;;0.30;99.90;;;;;;5109707;28;20200;-79
2023/03/02 03:27:42;;;;;;;36.10;21.87;;;0.40;99.90;;;;;;5112625;28;20203;-80
2023/03/02 03:30:13;;;;;;;33.17;21.40;;;0.40;99.90;;;;;;5105285;27;20241;-79
2023/03/02 03:32:40;;;;;;;36.37;21.03;;;0.40;99.90;;;;;;5112973;27;20200;-80
2023/03/02 03:35:10;;;;;;;33.10;21.40;;;0.40;99.90;;;;;;5104835;27;20819;-79
2023/03/02 03:37:38;;;;;;;34.63;21.50;;;0.50;99.90;;;;;;5103177;28;20198;-79
2023/03/02 03:40:06;;;;;;;32.83;20.67;;;0.50;99.90;;;;;;5105449;28;20207;-80
2023/03/02 03:42:33;;;;;;;35.80;21.13;;;0.40;99.90;;;;;;5109721;28;20563;-79
2023/03/02 03:45:00;;;;;;;35.13;21.53;;;0.50;99.90;;;;;;5104926;28;20201;-80
2023/03/02 03:47:28;;;;;;;33.17;21.17;;;0.50;99.90;;;;;;5108394;28;20203;-83
2023/03/02 03:49:55;;;;;;;34.07;20.43;;;0.50;99.90;;;;;;5107485;28;20557;-80
2023/03/02 03:52:29;;;;;;;33.70;20.13;;;0.50;99.90;;;;;;5105532;28;20223;-80
2023/03/02 03:54:56;;;;;;;31.80;19.60;;;0.50;99.90;;;;;;5107090;27;20681;-79
2023/03/02 03:57:23;;;;;;;31.83;20.20;;;0.50;99.90;;;;;;5110128;27;20258;-80
2023/03/02 03:59:50;;;;;;;32.73;20.30;;;0.50;99.90;;;;;;5104932;27;20212;-80
2023/03/02 04:02:17;;;;;;;36.90;21.63;;;0.50;99.90;;;;;;5118274;27;20694;-80
2023/03/02 04:04:45;;;;;;;30.47;20.00;;;0.50;99.90;;;;;;5106808;27;20210;-81
2023/03/02 04:07:12;;;;;;;32.70;20.50;;;0.50;99.90;;;;;;5108791;27;20235;-80
2023/03/02 04:09:39;;;;;;;32.47;20.67;;;0.50;99.90;;;;;;5113235;27;20200;-79
2023/03/02 04:12:07;;;;;;;32.13;20.17;;;0.50;99.90;;;;;;5115395;27;20233;-80
2023/03/02 04:14:34;;;;;;;35.60;20.03;;;0.40;99.90;;;;;;5108619;27;20204;-80
2023/03/02 04:17:04;;;;;;;35.07;20.23;;;0.40;99.90;;;;;;5116073;27;20203;-79
2023/03/02 04:19:31;;;;;;;32.90;19.73;;;0.50;99.80;;;;;;5108160;28;20196;-79
2023/03/02 04:22:02;;;;;;;39.17;21.03;;;0.50;99.50;;;;;;5106991;28;20228;-80
2023/03/02 04:24:29;;;;;;;30.53;20.17;;;0.40;99.30;;;;;;5107434;27;20188;-81
2023/03/02 04:26:56;;;;;;;34.40;21.43;;;0.30;99.60;;;;;;5107960;28;20196;-79
2023/03/02 04:29:23;;;;;;;35.50;20.73;;;0.20;99.90;;;;;;5109521;27;20199;-80
2023/03/02 04:31:50;;;;;;;36.57;21.90;;;0.10;99.90;;;;;;5101212;28;20200;-79
2023/03/02 04:34:16;;;;;;;32.50;20.73;;;0.00;99.90;;;;;;5109330;28;20556;-79
2023/03/02 04:36:43;;;;;;;35.97;21.27;;;0.00;99.90;;;;;;5107077;27;20230;-80
2023/03/02 04:39:13;;;;;;;38.20;21.30;;;0.00;99.90;;;;;;5105410;28;20196;-81
2023/03/02 04:41:40;;;;;;;37.07;21.03;;;0.00;99.90;;;;;;5113080;27;20242;-84
2023/03/02 04:44:07;;;;;;;33.67;21.00;;;0.10;99.90;;;;;;5104446;28;20200;-80
2023/03/02 04:46:34;;;;;;;32.30;20.33;;;0.20;99.90;;;;;;5107902;28;20199;-79
2023/03/02 04:49:01;;;;;;;33.13;20.70;;;0.20;99.90;;;;;;5106581;27;20199;-80
2023/03/02 04:51:30;;;;;;;34.60;21.47;;;0.10;99.90;;;;;;5106288;28;20208;-80
2023/03/02 04:53:59;;;;;;;36.17;20.53;;;0.00;99.90;;;;;;5102052;27;20205;-80
2023/03/02 04:56:28;;;;;;;32.80;20.83;;;-0.10;99.90;;;;;;5112966;27;20200;-79
2023/03/02 04:58:56;;;;;;;36.90;21.73;;;-0.20;99.90;;;;;;5111794;28;20208;-79
2023/03/02 05:01:23;;;;;;;36.37;20.83;;;-0.20;99.90;;;;;;5107308;27;20264;-80
2023/03/02 05:03:50;;;;;;;37.27;21.70;;;-0.20;99.90;;;;;;5120966;27;20222;-80
2023/03/02 05:06:18;;;;;;;36.20;21.90;;;-0.20;99.90;;;;;;5111456;27;20196;-81
2023/03/02 05:08:45;;;;;;;35.47;21.73;;;-0.20;99.90;;;;;;5111298;27;20203;-79
2023/03/02 05:11:20;;;;;;;36.00;21.93;;;-0.30;99.90;;;;;;5103891;27;20223;-80
2023/03/02 05:13:49;;;;;;;38.17;23.90;;;-0.30;99.90;;;;;;5108462;28;20227;-79
2023/03/02 05:16:16;;;;;;;38.70;22.47;;;-0.30;99.90;;;;;;5101321;28;20203;-80
2023/03/02 05:18:42;;;;;;;37.70;22.33;;;-0.20;99.90;;;;;;5110419;27;20223;-80
2023/03/02 05:21:10;;;;;;;35.67;22.13;;;-0.10;99.90;;;;;;5107413;28;20215;-80
2023/03/02 05:23:37;;;;;;;36.83;22.10;;;0.00;99.90;;;;;;5095273;28;20228;-79
2023/03/02 05:26:03;;;;;;;32.63;20.60;;;0.10;99.90;;;;;;5106065;28;20199;-80
2023/03/02 05:28:30;;;;;;;33.87;20.83;;;0.20;99.90;;;;;;5105950;28;20196;-80
2023/03/02 05:30:59;;;;;;;36.17;20.67;;;0.20;99.90;;;;;;5107819;28;20196;-80
2023/03/02 05:33:26;;;;;;;35.63;21.43;;;0.20;99.90;;;;;;5110459;27;20200;-80
2023/03/02 05:35:53;;;;;;;35.33;20.97;;;0.10;99.90;;;;;;5099595;27;20209;-84
2023/03/02 05:38:19;;;;;;;33.90;20.80;;;0.00;99.90;;;;;;5106332;28;20196;-80
2023/03/02 05:40:46;;;;;;;34.53;21.97;;;-0.10;99.90;;;;;;5096593;28;20200;-79
2023/03/02 05:43:17;;;;;;;35.83;21.77;;;-0.20;99.90;;;;;;5098414;28;20212;-80
2023/03/02 05:45:44;;;;;;;35.57;22.10;;;-0.30;99.90;;;;;;5098099;28;20200;-79
2023/03/02 05:48:13;;;;;;;39.50;21.70;;;-0.30;99.90;;;;;;5098912;28;20196;-78
2023/03/02 05:50:40;;;;;;;39.93;22.13;;;-0.20;99.90;;;;;;5103239;28;20843;-79
2023/03/02 05:53:07;;;;;;;36.97;22.13;;;-0.10;99.90;;;;;;5111468;28;20211;-80
2023/03/02 05:55:35;;;;;;;39.30;21.43;;;-0.10;99.90;;;;;;5105540;27;20219;-78
2023/03/02 05:58:02;;;;;;;31.13;20.23;;;-0.10;99.90;;;;;;5108735;27;20207;-78
2023/03/02 06:00:29;;;;;;;35.70;21.57;;;-0.10;99.90;;;;;;5105954;27;20200;-79
2023/03/02 06:02:56;;;;;;;36.13;20.40;;;-0.20;99.90;;;;;;5100995;28;20220;-78
2023/03/02 06:05:24;;;;;;;35.07;21.73;;;-0.20;99.90;;;;;;5102499;28;20773;-81
2023/03/02 06:07:51;;;;;;;33.37;21.40;;;-0.20;99.90;;;;;;5106728;28;20199;-82
2023/03/02 06:10:18;;;;;;;37.47;21.83;;;-0.10;99.90;;;;;;5106084;27;20203;-84
2023/03/02 06:12:45;;;;;;;35.13;21.17;;;0.10;99.90;;;;;;5095698;27;20196;-78
2023/03/02 06:15:12;;;;;;;35.97;22.30;;;0.10;99.90;;;;;;5100042;28;20208;-75
2023/03/02 06:17:38;;;;;;;38.17;23.17;;;0.10;99.90;;;;;;5106939;28;20200;-75
2023/03/02 06:20:09;;;;;;;35.30;22.10;;;0.00;99.90;;;;;;5097925;28;20201;-78
2023/03/02 06:22:40;;;;;;;39.33;22.67;;;0.00;99.90;;;;;;5099769;27;20232;-78
2023/03/02 06:25:09;;;;;;;35.70;22.70;;;0.00;99.90;;;;;;5111972;27;20196;-77
2023/03/02 06:27:37;;;;;;;34.00;21.90;;;0.00;99.90;;;;;;5099224;28;20196;-77
2023/03/02 06:30:04;;;;;;;37.83;22.43;;;0.00;99.90;;;;;;5111557;28;20196;-78
2023/03/02 06:32:33;;;;;;;37.27;22.27;;;0.10;99.90;;;;;;5108907;28;20230;-77
2023/03/02 06:35:00;;;;;;;35.77;22.77;;;0.20;99.90;;;;;;5104285;28;20197;-78
2023/03/02 06:37:28;;;;;;;37.77;21.73;;;0.20;99.90;;;;;;5098470;28;20196;-79
2023/03/02 06:39:57;;;;;;;34.60;21.37;;;0.40;99.90;;;;;;5104601;28;20226;-79
2023/03/02 06:42:26;;;;;;;34.70;21.43;;;0.40;99.90;;;;;;5108924;27;20686;-78
2023/03/02 06:44:54;;;;;;;36.90;21.73;;;0.40;99.90;;;;;;5106806;28;20230;-79
2023/03/02 06:47:22;;;;;;;35.83;22.80;;;0.40;99.90;;;;;;5104379;28;20223;-78
2023/03/02 06:49:49;;;;;;;37.20;22.87;;;0.40;99.90;;;;;;5107301;28;20656;-78
2023/03/02 06:52:15;;;;;;;37.83;22.73;;;0.50;99.90;;;;;;5103287;28;20199;-78
2023/03/02 06:54:42;;;;;;;36.53;22.30;;;0.60;99.90;;;;;;5102570;28;20208;-78
2023/03/02 06:57:10;;;;;;;35.57;22.20;;;0.60;99.90;;;;;;5104614;28;20216;-80
2023/03/02 06:59:37;;;;;;;35.20;22.27;;;0.80;99.90;;;;;;5105195;28;20196;-78
2023/03/02 07:02:04;;;;;;;35.20;22.73;;;0.80;99.90;;;;;;5101660;28;20274;-78
2023/03/02 07:04:32;;;;;;;38.80;22.17;;;0.90;99.90;;;;;;5098515;28;20197;-79
2023/03/02 07:06:58;;;;;;;35.83;22.53;;;1.00;99.90;;;;;;5103036;28;20219;-79
2023/03/02 07:09:25;;;;;;;36.47;22.03;;;1.10;99.90;;;;;;5106416;27;20195;-78
2023/03/02 07:11:52;;;;;;;34.93;21.53;;;1.20;99.90;;;;;;5096461;28;20205;-78
2023/03/02 07:14:20;;;;;;;38.50;23.27;;;1.20;99.90;;;;;;5098840;28;20584;-78
2023/03/02 07:16:47;;;;;;;33.87;21.50;;;1.20;99.90;;;;;;5096678;28;20663;-78
2023/03/02 07:19:14;;;;;;;35.50;22.40;;;1.30;99.90;;;;;;5101985;28;20203;-78
2023/03/02 07:21:41;;;;;;;34.40;21.57;;;1.40;99.90;;;;;;5099067;28;20219;-81
2023/03/02 07:24:08;;;;;;;35.53;21.60;;;1.60;99.90;;;;;;5108953;28;20208;-81
2023/03/02 07:26:35;;;;;;;33.90;20.47;;;2.00;99.50;;;;;;5112718;28;20196;-82
2023/03/02 07:29:01;;;;;;;33.50;21.80;;;2.10;98.80;;;;;;5102981;28;20214;-82
2023/03/02 07:31:30;;;;;;;33.67;20.50;;;2.20;98.60;;;;;;5104579;28;20670;-86
2023/03/02 07:33:56;;;;;;;32.10;21.53;;;2.30;98.10;;;;;;5104455;28;21222;-81
2023/03/02 07:36:25;;;;;;;28.70;20.07;;;2.30;97.70;;;;;;5097200;28;20606;-81
2023/03/02 07:38:53;;;;;;;34.77;21.13;;;2.50;97.80;;;;;;5100667;28;20196;-82
2023/03/02 07:41:21;;;;;;;32.57;20.03;;;2.70;97.10;;;;;;5108519;28;20196;-82
2023/03/02 07:43:48;;;;;;;31.13;20.20;;;2.80;96.70;;;;;;5107657;28;20302;-82
2023/03/02 07:46:15;;;;;;;33.87;19.80;;;2.90;96.20;;;;;;5101854;28;20196;-83
2023/03/02 07:48:43;;;;;;;26.50;18.30;;;2.90;96.20;;;;;;5110451;28;20208;-82
2023/03/02 07:51:10;;;;;;;30.83;19.60;;;3.00;95.60;;;;;;5115507;28;20200;-82
2023/03/02 07:53:37;;;;;;;31.57;19.67;;;3.20;95.90;;;;;;5113304;28;20556;-83
2023/03/02 07:56:07;;;;;;;30.10;19.33;;;3.50;94.80;;;;;;5113255;28;20567;-82
2023/03/02 07:58:34;;;;;;;28.33;17.77;;;3.50;94.30;;;;;;5119145;28;20262;-82
2023/03/02 08:01:01;;;;;;;28.47;18.73;;;3.90;93.20;;;;;;5114958;27;20203;-83
2023/03/02 08:03:27;;;;;;;28.90;18.83;;;4.00;92.80;;;;;;5105996;27;20223;-82
2023/03/02 08:05:56;;;;;;;26.50;17.87;;;4.00;93.20;;;;;;5116441;28;20666;-83
2023/03/02 08:08:22;;;;;;;26.93;18.47;;;4.30;92.00;;;;;;5113489;27;20204;-86
2023/03/02 08:10:49;;;;;;;27.10;18.13;;;4.30;91.50;;;;;;5113260;28;20204;-83
2023/03/02 08:13:16;;;;;;;28.10;18.57;;;4.30;91.50;;;;;;5117465;27;20726;-84
2023/03/02 08:15:43;;;;;;;27.33;18.30;;;4.20;91.40;;;;;;5120735;27;20207;-82
2023/03/02 08:18:10;;;;;;;28.53;18.90;;;4.30;91.70;;;;;;5107627;27;20205;-82
2023/03/02 08:20:37;;;;;;;28.80;18.43;;;4.30;91.10;;;;;;5112292;28;20210;-85
2023/03/02 08:23:05;;;;;;;28.60;18.07;;;4.30;91.40;;;;;;5111162;27;20228;-82
2023/03/02 08:25:32;;;;;;;24.17;18.10;;;4.30;92.60;;;;;;5115825;27;20203;-82
2023/03/02 08:27:59;;;;;;;27.17;17.67;;;4.50;91.80;;;;;;5113644;27;20223;-81
2023/03/02 08:30:26;;;;;;;28.70;16.90;;;4.70;90.70;;;;;;5111800;27;20192;-82
2023/03/02 08:32:53;;;;;;;24.93;16.50;;;4.50;90.70;;;;;;5117401;27;20199;-84
2023/03/02 08:35:20;;;;;;;26.57;17.43;;;4.30;91.10;;;;;;5117323;27;20199;-82
2023/03/02 08:37:47;;;;;;;30.03;17.93;;;4.30;91.30;;;;;;5102649;28;20200;-82
2023/03/02 08:40:17;;;;;;;25.93;16.33;;;4.40;92.00;;;;;;5112601;27;20214;-82
2023/03/02 08:42:44;;;;;;;27.67;17.40;;;4.60;91.20;;;;;;5111024;27;20227;-82
2023/03/02 08:45:11;;;;;;;30.03;17.43;;;4.70;91.20;;;;;;5118878;27;20206;-83
2023/03/02 08:47:38;;;;;;;24.37;16.43;;;4.80;91.30;;;;;;5116419;27;20203;-84
2023/03/02 08:50:06;;;;;;;25.67;16.93;;;5.20;90.30;;;;;;5116864;27;20195;-84
2023/03/02 08:52:33;;;;;;;22.20;16.13;;;5.30;89.20;;;;;;5111504;28;21024;-84
2023/03/02 08:55:00;;;;;;;27.63;16.73;;;5.40;88.00;;;;;;5116869;27;20227;-82
2023/03/02 08:57:28;;;;;;;27.07;16.40;;;5.50;88.70;;;;;;5106605;27;20192;-82
2023/03/02 08:59:55;;;;;;;23.23;16.67;;;5.50;89.30;;;;;;5106858;28;20204;-82
2023/03/02 09:02:24;;;;;;;24.53;16.33;;;5.60;86.70;;;;;;5113246;27;20597;-85
2023/03/02 09:04:50;;;;;;;26.58;16.88;;;5.90;85.60;;;;;;5112002;27;20192;-84
2023/03/02 09:07:17;;;;;;;23.50;16.53;;;6.30;83.70;;;;;;5117667;27;20195;-85
2023/03/02 09:09:44;;;;;;;23.27;16.10;;;6.30;81.00;;;;;;5112074;27;20188;-84
2023/03/02 09:12:11;;;;;;;27.58;16.35;;;6.50;78.40;;;;;;5112698;27;20203;-86
2023/03/02 09:14:39;;;;;;;25.17;16.50;;;7.00;75.50;;;;;;5113830;27;20662;-84
2023/03/02 09:17:06;;;;;;;23.40;16.25;;;7.30;70.90;;;;;;5103748;27;20196;-85
2023/03/02 09:19:40;;;;;;;22.98;15.95;;;8.20;56.90;;;;;;5102716;27;20192;-84
2023/03/02 09:22:07;;;;;;;21.85;15.13;;;8.80;49.50;;;;;;5113003;27;20296;-85
2023/03/02 09:24:35;;;;;;;19.90;15.38;;;8.80;47.40;;;;;;5111097;27;20204;-84
2023/03/02 09:27:02;;;;;;;19.17;15.50;;;9.20;43.90;;;;;;5121087;27;20203;-84
2023/03/02 09:29:29;;;;;;;23.85;15.23;;;10.10;34.50;;;;;;5114043;27;20724;-86
2023/03/02 09:31:58;;;;;;;19.15;15.02;;;10.60;32.70;;;;;;5109000;27;20219;-85
2023/03/02 09:34:25;;;;;;;19.33;14.50;;;11.30;30.40;;;;;;5121340;27;20204;-85
2023/03/02 09:36:52;;;;;;;24.70;15.60;;;12.20;25.50;;;;;;5112791;27;20198;-86
2023/03/02 09:39:18;;;;;;;18.95;15.32;;;12.80;25.60;;;;;;5113201;27;20214;-88
2023/03/02 09:42:10;;;;;;;18.65;16.45;;;12.80;22.70;;;;;;5095538;28;20223;-85
2023/03/02 09:45:02;;;;;;;22.83;15.43;;;12.00;25.30;;;;;;5104541;28;20207;-85
2023/03/02 09:47:36;;;;;;;20.77;15.40;;;12.90;22.90;;;;;;5112224;27;20200;-82
2023/03/02 09:50:15;;;;;;;18.63;14.93;;;13.80;20.70;;;;;;5109065;27;20277;-83
2023/03/02 09:52:49;;;;;;;20.40;16.23;;;14.30;20.00;;;;;;5111212;27;20207;-83
2023/03/02 09:55:19;;;;;;;19.80;16.10;;;14.40;19.30;;;;;;5110433;27;20211;-82
2023/03/02 09:57:46;;;;;;;19.23;16.67;;;14.40;18.80;;;;;;5111037;27;20200;-82
2023/03/02 10:00:16;;;;;;;20.13;16.42;;;14.00;18.90;;;;;;5102128;27;20695;-82
2023/03/02 10:02:48;;;;;;;37.05;28.77;;;14.40;19.50;;;;;;5099477;28;20295;-86
2023/03/02 10:05:18;;;;;;;23.50;15.63;;;13.80;20.90;;;;;;5108318;28;20203;-82
2023/03/02 10:07:47;;;;;;;30.00;21.60;;;14.60;18.10;;;;;;5106290;27;20203;-83
2023/03/02 10:10:25;;;;;;;17.70;15.90;;;14.60;18.30;;;;;;5107049;27;20219;-83
2023/03/02 10:13:03;;;;;;;19.65;16.52;;;14.50;18.20;;;;;;5108757;27;20203;-84
2023/03/02 10:15:38;;;;;;;20.65;16.75;;;13.20;21.20;;;;;;5100226;27;20192;-83
2023/03/02 10:18:17;;;;;;;18.67;16.15;;;13.20;21.30;;;;;;5107614;27;20345;-83
2023/03/02 10:20:51;;;;;;;18.90;15.48;;;13.60;22.20;;;;;;5106621;28;20203;-84
2023/03/02 10:23:38;;;;;;;17.83;15.10;;;13.50;20.90;;;;;;5108128;27;20688;-84
2023/03/02 10:26:15;;;;;;;19.45;15.18;;;13.20;22.90;;;;;;5113909;27;20215;-83
2023/03/02 10:28:48;;;;;;;17.58;15.02;;;14.10;19.90;;;;;;5106851;27;20199;-82
2023/03/02 10:31:24;;;;;;;19.08;14.85;;;14.40;19.10;;;;;;5110390;27;20204;-83
2023/03/02 10:33:52;;;;;;;20.08;15.40;;;14.10;19.50;;;;;;5103470;27;20212;-82
2023/03/02 10:36:24;;;;;;;18.92;16.38;;;13.80;20.00;;;;;;5105695;27;20533;-83
2023/03/02 10:38:51;;;;;;;19.63;14.05;;;13.40;21.30;;;;;;5104831;27;20341;-83
2023/03/02 10:41:22;;;;;;;18.60;15.40;;;13.20;21.70;;;;;;5109284;27;20623;-84
2023/03/02 10:43:51;;;;;;;21.92;14.55;;;13.70;20.70;;;;;;5102054;27;20223;-81
2023/03/02 10:46:18;;;;;;;18.88;15.63;;;14.00;20.00;;;;;;5106660;27;20204;-82
2023/03/02 10:48:50;;;;;;;20.60;14.90;;;13.20;20.40;;;;;;5112728;27;20626;-86
2023/03/02 10:51:25;;;;;;;18.70;15.15;;;13.20;22.20;;;;;;5101533;27;20195;-85
2023/03/02 10:54:06;;;;;;;17.15;14.48;;;12.90;25.90;;;;;;5104030;28;20210;-85
2023/03/02 10:56:33;;;;;;;18.38;14.25;;;13.50;21.40;;;;;;5103849;28;20200;-85
2023/03/02 10:59:02;;;;;;;15.95;13.82;;;13.40;21.90;;;;;;5111197;27;20203;-82
2023/03/02 11:01:31;;;;;;;25.38;15.10;;;13.30;20.60;;;;;;5103572;28;20728;-82
2023/03/02 11:03:59;;;;;;;15.32;13.60;;;13.20;22.80;;;;;;5105472;28;20269;-85
2023/03/02 11:06:29;;;;;;;17.65;14.13;;;13.10;23.20;;;;;;5101173;28;20196;-84
2023/03/02 11:09:00;;;;;;;17.88;14.70;;;13.10;22.00;;;;;;5110830;27;20208;-85
2023/03/02 11:11:28;;;;;;;16.05;12.82;;;13.00;22.20;;;;;;5111862;27;20231;-84
2023/03/02 11:13:56;;;;;;;15.05;12.70;;;12.60;24.80;;;;;;5102956;28;20200;-85
2023/03/02 11:16:28;;;;;;;17.55;13.57;;;12.80;24.80;;;;;;5107901;28;20196;-85
2023/03/02 11:18:58;;;;;;;18.38;13.82;;;13.00;22.40;;;;;;5104755;28;20204;-85
2023/03/02 11:21:34;;;;;;;15.93;13.30;;;13.20;22.00;;;;;;5114604;28;20220;-85
2023/03/02 11:24:09;;;;;;;15.95;12.75;;;13.00;22.70;;;;;;5102872;28;20599;-88
2023/03/02 11:26:43;;;;;;;16.50;12.45;;;12.30;23.80;;;;;;5102677;28;20634;-85
2023/03/02 11:29:22;;;;;;;18.10;13.25;;;12.10;25.40;;;;;;5114092;28;20198;-85
2023/03/02 11:31:52;;;;;;;15.30;12.38;;;11.60;26.80;;;;;;5104171;28;20200;-85
2023/03/02 11:34:32;;;;;;;19.00;13.38;;;11.30;30.10;;;;;;5100819;28;20223;-85
2023/03/02 11:37:12;;;;;;;18.58;12.75;;;11.20;27.50;;;;;;5118286;28;20236;-87
2023/03/02 11:39:54;;;;;;;18.25;11.85;;;10.90;30.90;;;;;;5100553;28;20199;-86
2023/03/02 11:42:26;;;;;;;17.27;12.80;;;11.10;27.50;;;;;;5105498;28;20204;-85
2023/03/02 11:44:53;;;;;;;19.17;12.68;;;11.20;28.30;;;;;;5114581;28;20207;-88
2023/03/02 11:47:21;;;;;;;16.05;11.98;;;10.90;28.50;;;;;;5110546;28;20199;-85
2023/03/02 11:49:52;;;;;;;16.42;10.85;;;10.70;28.70;;;;;;5111922;27;20239;-85
2023/03/02 11:52:24;;;;;;;16.25;10.38;;;10.60;29.60;;;;;;5114549;27;20189;-86
2023/03/02 11:54:57;;;;;;;13.38;10.20;;;10.70;28.80;;;;;;5108860;28;20200;-86
2023/03/02 11:57:29;;;;;;;14.02;10.45;;;10.80;28.20;;;;;;5132041;27;20199;-85
2023/03/02 11:59:58;;;;;;;16.02;10.07;;;10.90;28.00;;;;;;5124512;27;20234;-87
2023/03/02 12:02:26;;;;;;;13.40;10.02;;;10.80;28.20;;;;;;5107563;28;20606;-84
2023/03/02 12:05:03;;;;;;;14.68;10.65;;;10.80;28.30;;;;;;5106548;28;20302;-89
2023/03/02 12:10:27;;;;;;;15.15;10.40;;;10.60;29.90;;;;;;5117810;27;20195;-83
2023/03/02 12:13:14;;;;;;;11.88;9.68;;;10.80;28.70;;;;;;5106220;28;20227;-85
2023/03/02 12:15:42;;;;;;;12.82;9.73;;;10.60;27.90;;;;;;5111708;27;20195;-85
2023/03/02 12:18:31;;;;;;;13.80;9.90;;;10.70;28.80;;;;;;5111522;27;20564;-86
2023/03/02 12:21:00;;;;;;;15.65;9.65;;;10.80;29.10;;;;;;5105040;28;20196;-85
2023/03/02 12:23:30;;;;;;;12.73;10.43;;;10.70;28.10;;;;;;5104288;28;20228;-86
2023/03/02 12:26:09;;;;;;;12.45;8.95;;;10.50;29.60;;;;;;5106852;27;20200;-86
2023/03/02 12:28:40;;;;;;;12.65;9.75;;;10.70;28.50;;;;;;5093888;28;20239;-85
2023/03/02 12:31:10;;;;;;;15.35;9.90;;;10.90;27.70;;;;;;5108992;27;20196;-84
2023/03/02 12:33:47;;;;;;;14.90;9.43;;;10.90;28.00;;;;;;5109602;27;20329;-85
2023/03/02 12:36:20;;;;;;;13.07;9.63;;;10.80;30.10;;;;;;5115033;27;20213;-84
2023/03/02 12:42:29;;;;;;;15.35;10.57;;;10.90;28.00;;;;;;5095829;27;20216;-83
2023/03/02 12:45:04;;;;;;;15.65;9.57;;;10.90;27.90;;;;;;5105695;27;20223;-83
2023/03/02 12:47:32;;;;;;;15.98;9.98;;;10.90;28.50;;;;;;5110219;28;20207;-84
2023/03/02 12:50:01;;;;;;;14.52;9.45;;;10.90;30.00;;;;;;5109151;28;20192;-84